Time;durP1;ratioP1;P1;durP2;ratioP2;P2;SDS_P1;SDS_P2;PMS_P1;PMS_P2;Temp;Humidity;BMP_temperature;BMP_pressure;BME280_temperature;BME280_humidity;BME280_pressure;Samples;Min_cycle;Max_cycle;Signal;HPM_P1;HPM_P2
2023/09/10 00:01:10;;;;;;;1.83;1.10;;;;;;;18.13;53.36;100058.91;4974290;28;20181;-95
2023/09/10 00:03:36;;;;;;;1.52;0.70;;;;;;;17.99;53.64;100040.78;4989302;28;20090;-95
2023/09/10 00:06:04;;;;;;;1.02;0.65;;;;;;;18.12;53.61;100066.06;4984806;28;20045;-96
2023/09/10 00:08:32;;;;;;;2.85;0.43;;;;;;;18.07;53.12;100062.69;4993086;28;20030;-91
2023/09/10 00:10:58;;;;;;;0.68;0.63;;;;;;;17.87;53.78;100045.66;4986807;28;20089;-94
2023/09/10 00:13:27;;;;;;;1.30;1.00;;;;;;;18.00;53.12;100045.19;4968873;28;20030;-94
2023/09/10 00:15:54;;;;;;;2.15;1.00;;;;;;;17.62;53.66;100018.19;4966986;28;20047;-94
2023/09/10 00:18:20;;;;;;;1.95;1.13;;;;;;;17.39;54.33;100027.94;4972423;28;20042;-93
2023/09/10 00:20:46;;;;;;;1.77;1.35;;;;;;;17.16;54.37;99996.81;4972292;28;20362;-93
2023/09/10 00:23:13;;;;;;;1.63;0.88;;;;;;;17.20;55.26;100009.09;4970452;28;20121;-94
2023/09/10 00:25:38;;;;;;;0.80;0.80;;;;;;;17.52;54.90;100047.88;4969329;28;20485;-90
2023/09/10 00:28:04;;;;;;;0.77;0.43;;;;;;;17.53;54.49;100035.41;4972202;28;20037;-91
2023/09/10 00:30:29;;;;;;;2.90;1.50;;;;;;;17.65;54.16;100023.41;4972567;28;20057;-91
2023/09/10 00:32:55;;;;;;;0.50;0.50;;;;;;;17.89;53.59;100056.31;4991851;28;20038;-93
2023/09/10 00:35:20;;;;;;;1.77;0.73;;;;;;;17.92;52.99;100055.28;4987052;28;20456;-91
2023/09/10 00:37:47;;;;;;;2.72;1.40;;;;;;;17.74;53.84;100008.84;4970969;28;20045;-91
2023/09/10 00:40:13;;;;;;;0.93;0.60;;;;;;;17.74;54.04;99999.03;4969739;28;20031;-93
2023/09/10 00:42:38;;;;;;;0.88;0.40;;;;;;;18.20;53.63;100068.41;4970755;28;20531;-94
2023/09/10 00:45:10;;;;;;;5.72;0.75;;;;;;;18.11;53.70;100018.06;4965954;28;20029;-93
2023/09/10 00:47:39;;;;;;;1.00;0.80;;;;;;;18.31;54.14;100068.84;4957069;28;20035;-91
2023/09/10 00:50:05;;;;;;;1.17;1.05;;;;;;;17.83;53.80;100004.00;4955479;28;20149;-93
2023/09/10 00:52:32;;;;;;;0.52;0.40;;;;;;;18.34;53.48;100050.03;4954940;28;20073;-92
2023/09/10 00:54:58;;;;;;;0.90;0.85;;;;;;;18.15;53.14;100014.31;4968818;28;20129;-90
2023/09/10 00:57:25;;;;;;;1.75;1.25;;;;;;;18.30;52.69;100039.53;4979958;28;20133;-93
2023/09/10 00:59:51;;;;;;;1.55;1.08;;;;;;;18.36;53.12;100044.63;4954648;28;20149;-92
2023/09/10 01:02:18;;;;;;;0.75;0.75;;;;;;;18.38;52.86;100054.31;4973385;28;20027;-93
2023/09/10 01:04:44;;;;;;;3.45;1.10;;;;;;;18.28;52.52;100060.09;4974293;28;20034;-92
2023/09/10 01:07:10;;;;;;;1.13;0.73;;;;;;;18.03;53.14;100010.38;4976482;28;20050;-91
2023/09/10 01:09:35;;;;;;;2.38;1.45;;;;;;;17.98;53.39;100007.91;4954836;28;20023;-92
2023/09/10 01:12:25;;;;;;;1.05;0.95;;;;;;;18.27;53.39;100045.00;4980736;28;20030;-90
2023/09/10 01:15:17;;;;;;;0.50;0.50;;;;;;;18.22;53.89;100055.88;4972171;28;20041;-90
2023/09/10 01:17:54;;;;;;;3.25;0.68;;;;;;;18.22;54.15;100058.53;4960157;28;20086;-89
2023/09/10 01:20:22;;;;;;;0.60;0.60;;;;;;;18.06;54.12;100021.78;4973986;28;20121;-89
2023/09/10 01:23:03;;;;;;;6.28;1.20;;;;;;;18.08;54.32;100021.72;4973859;28;20062;-88
2023/09/10 01:25:33;;;;;;;0.93;0.63;;;;;;;18.02;54.90;99996.13;4957431;28;20054;-89
2023/09/10 01:27:58;;;;;;;3.35;1.35;;;;;;;18.05;55.05;100008.50;4971610;28;20125;-93
2023/09/10 01:30:24;;;;;;;2.50;1.23;;;;;;;18.15;54.78;100008.97;4991098;28;20048;-91
2023/09/10 01:32:59;;;;;;;0.40;0.40;;;;;;;18.21;54.96;100041.66;4989837;28;20148;-91
2023/09/10 01:35:45;;;;;;;0.57;0.40;;;;;;;18.27;54.56;100051.19;4980856;28;20031;-90
2023/09/10 01:38:25;;;;;;;0.43;0.43;;;;;;;17.80;55.61;99992.59;4967133;28;20042;-92
2023/09/10 01:40:56;;;;;;;0.32;0.30;;;;;;;17.74;55.63;100007.03;4972202;28;20097;-91
2023/09/10 01:43:22;;;;;;;2.05;0.63;;;;;;;17.71;55.44;100002.69;4981812;28;20030;-91
2023/09/10 01:45:49;;;;;;;2.05;0.90;;;;;;;17.92;56.04;100033.94;4984835;28;20049;-91
2023/09/10 01:48:15;;;;;;;0.77;0.70;;;;;;;17.68;55.92;99973.47;4971173;28;20397;-91
2023/09/10 01:50:41;;;;;;;0.65;0.65;;;;;;;18.02;56.08;100003.28;4972842;28;20030;-92
2023/09/10 01:53:06;;;;;;;0.20;0.20;;;;;;;18.06;56.05;100018.25;4988956;28;20040;-92
2023/09/10 01:55:32;;;;;;;0.98;0.95;;;;;;;17.77;56.67;99982.03;4990527;28;20026;-91
2023/09/10 01:57:58;;;;;;;2.65;1.25;;;;;;;17.80;56.87;100019.28;4994420;28;20060;-90
2023/09/10 02:00:24;;;;;;;1.05;0.45;;;;;;;17.59;56.77;99989.81;4971232;28;20045;-90
2023/09/10 02:02:49;;;;;;;2.17;1.20;;;;;;;17.63;57.25;100027.94;4956871;28;20038;-91
2023/09/10 02:05:15;;;;;;;4.07;1.10;;;;;;;17.58;57.31;100016.56;4977885;28;20042;-89
2023/09/10 02:07:41;;;;;;;1.45;1.35;;;;;;;17.53;57.62;100017.63;4980343;28;20113;-91
2023/09/10 02:10:07;;;;;;;0.75;0.40;;;;;;;17.73;56.96;100034.63;4966403;28;20097;-93
2023/09/10 02:12:34;;;;;;;1.45;1.25;;;;;;;17.46;57.38;100008.13;4956102;28;20038;-88
2023/09/10 02:15:00;;;;;;;1.52;1.27;;;;;;;17.41;57.12;100003.88;4972228;28;20043;-90
2023/09/10 02:17:25;;;;;;;1.40;0.88;;;;;;;17.44;57.55;99998.41;4976486;28;20038;-90
2023/09/10 02:19:51;;;;;;;1.15;0.73;;;;;;;17.57;57.59;100042.38;4990072;28;20420;-88
2023/09/10 02:22:16;;;;;;;0.35;0.35;;;;;;;17.23;57.88;100005.47;4989981;28;20030;-89
2023/09/10 02:24:42;;;;;;;1.38;1.15;;;;;;;17.39;57.89;100045.75;4972117;28;20467;-90
2023/09/10 02:27:07;;;;;;;0.43;0.43;;;;;;;17.23;58.01;100027.66;4972737;28;20056;-90
2023/09/10 02:29:33;;;;;;;1.15;0.63;;;;;;;17.24;57.96;100016.06;4989952;28;20354;-91
2023/09/10 02:31:58;;;;;;;1.25;0.88;;;;;;;16.92;58.76;100004.78;4989093;28;20038;-91
2023/09/10 02:34:24;;;;;;;2.72;0.68;;;;;;;16.86;59.08;100001.44;4995073;28;20085;-89
2023/09/10 02:36:49;;;;;;;0.38;0.32;;;;;;;16.96;58.85;99997.53;4989875;28;20038;-91
2023/09/10 02:39:14;;;;;;;2.60;1.52;;;;;;;17.14;58.91;100012.00;4971499;28;20046;-89
2023/09/10 02:41:40;;;;;;;0.95;0.73;;;;;;;16.88;59.20;100010.28;4988202;28;20038;-89
2023/09/10 02:44:05;;;;;;;6.57;0.98;;;;;;;16.50;59.99;99999.16;4986074;28;20062;-86
2023/09/10 02:46:31;;;;;;;1.33;1.10;;;;;;;16.72;59.95;100018.78;4993006;28;20022;-88
2023/09/10 02:48:56;;;;;;;0.50;0.50;;;;;;;16.57;60.35;100035.31;4993920;28;20554;-87
2023/09/10 02:51:22;;;;;;;0.40;0.40;;;;;;;16.33;60.77;100011.25;4992987;28;20539;-88
2023/09/10 02:53:48;;;;;;;1.38;1.00;;;;;;;16.27;61.41;100041.59;4993757;28;20061;-88
2023/09/10 02:56:14;;;;;;;4.75;1.35;;;;;;;16.31;61.91;100063.66;4991245;28;20061;-89
2023/09/10 02:58:40;;;;;;;1.58;0.85;;;;;;;16.02;61.86;99993.66;4993527;28;20057;-89
2023/09/10 03:01:06;;;;;;;1.48;0.75;;;;;;;16.56;61.48;100052.19;4994289;28;20026;-89
2023/09/10 03:03:33;;;;;;;2.28;1.00;;;;;;;16.45;62.14;100040.13;4993957;28;20034;-88
2023/09/10 03:05:58;;;;;;;1.50;1.40;;;;;;;16.39;62.09;100036.78;4974174;28;20507;-89
2023/09/10 03:08:24;;;;;;;1.70;1.55;;;;;;;16.13;62.43;100019.00;4976156;28;20034;-89
2023/09/10 03:10:49;;;;;;;;;;;;;;;16.38;62.63;100067.00;4993639;28;20065;-88
2023/09/10 03:13:15;;;;;;;1.98;1.60;;;;;;;16.32;62.85;100067.22;4992830;28;20376;-88
2023/09/10 03:15:40;;;;;;;0.98;0.93;;;;;;;16.27;63.05;100044.25;4993278;28;20054;-87
2023/09/10 03:18:05;;;;;;;1.85;1.65;;;;;;;16.22;62.72;99998.31;4994381;28;20419;-88
2023/09/10 03:20:31;;;;;;;0.55;0.55;;;;;;;16.54;62.56;100051.38;4976128;28;20125;-90
2023/09/10 03:22:59;;;;;;;0.45;0.45;;;;;;;16.28;62.90;100050.44;4971860;28;20493;-91
2023/09/10 03:25:25;;;;;;;0.50;0.50;;;;;;;16.33;63.29;100063.59;4976524;28;20116;-91
2023/09/10 03:27:50;;;;;;;0.50;0.40;;;;;;;16.09;63.70;100039.53;4973679;28;20042;-90
2023/09/10 03:30:17;;;;;;;1.38;1.30;;;;;;;16.17;63.44;100040.16;4982018;28;20047;-90
2023/09/10 03:32:42;;;;;;;2.35;0.95;;;;;;;16.17;63.38;100031.31;4957057;28;20559;-91
2023/09/10 03:35:08;;;;;;;2.90;1.67;;;;;;;16.22;63.57;100063.97;4982243;28;20030;-90
2023/09/10 03:37:34;;;;;;;1.98;1.13;;;;;;;16.18;63.07;100027.75;4970322;28;20039;-91
2023/09/10 03:39:59;;;;;;;1.05;1.05;;;;;;;16.16;63.03;100046.41;4957132;28;20056;-90
2023/09/10 03:42:26;;;;;;;0.93;0.70;;;;;;;16.24;63.02;100073.66;4957447;28;20069;-92
2023/09/10 03:44:51;;;;;;;0.47;0.47;;;;;;;16.26;63.22;100077.13;4956974;28;20031;-92
2023/09/10 03:47:17;;;;;;;0.57;0.57;;;;;;;16.16;62.97;100075.69;4964584;28;20038;-90
2023/09/10 03:49:42;;;;;;;2.78;0.95;;;;;;;16.21;62.25;100068.41;4976322;28;20042;-90
2023/09/10 03:52:19;;;;;;;0.82;0.70;;;;;;;16.05;62.62;100038.78;4956533;28;20045;-89
2023/09/10 03:54:44;;;;;;;1.65;1.08;;;;;;;16.17;61.62;100026.00;4978589;28;20093;-93
2023/09/10 03:57:10;;;;;;;0.77;0.77;;;;;;;15.90;62.09;100013.53;4972930;28;20436;-92
2023/09/10 03:59:35;;;;;;;1.40;1.30;;;;;;;16.15;61.89;100063.28;4972703;28;20054;-94
2023/09/10 04:02:01;;;;;;;0.75;0.57;;;;;;;16.21;61.04;100019.66;4991980;28;20072;-92
2023/09/10 04:04:26;;;;;;;1.48;1.38;;;;;;;16.42;61.20;100081.94;4984421;28;20090;-93
2023/09/10 04:06:52;;;;;;;1.20;1.10;;;;;;;16.30;60.93;100064.59;4955843;28;20503;-92
2023/09/10 04:09:17;;;;;;;;;;;;;;;16.42;61.55;100081.94;4976168;28;20099;-93
2023/09/10 04:11:42;;;;;;;1.23;1.15;;;;;;;16.60;60.82;100075.13;4955978;28;19914;-93
2023/09/10 04:14:08;;;;;;;5.15;2.53;;;;;;;16.43;61.54;100063.25;4973410;28;20105;-92
2023/09/10 04:16:33;;;;;;;;;;;;;;;16.60;60.48;100091.97;4957353;28;20033;-93
2023/09/10 04:18:59;;;;;;;2.15;1.95;;;;;;;16.41;60.17;100061.59;4972671;28;19917;-90
2023/09/10 04:21:24;;;;;;;1.83;1.55;;;;;;;16.30;61.37;100075.25;4982836;28;20042;-90
2023/09/10 04:23:49;;;;;;;0.85;0.80;;;;;;;16.38;61.21;100048.38;4974630;28;20042;-91
2023/09/10 04:26:15;;;;;;;0.85;0.68;;;;;;;16.34;61.67;100065.34;4992450;28;20038;-91
2023/09/10 04:28:41;;;;;;;0.85;0.73;;;;;;;16.56;61.58;100057.50;4983016;28;20111;-92
2023/09/10 04:31:13;;;;;;;3.53;1.80;;;;;;;16.62;60.73;100079.50;4978301;28;20073;-91
2023/09/10 04:33:39;;;;;;;2.25;1.42;;;;;;;16.60;60.34;100080.47;4963135;28;20727;-89
2023/09/10 04:36:05;;;;;;;0.90;0.65;;;;;;;16.62;61.35;100084.84;4977883;28;20034;-92
2023/09/10 04:38:30;;;;;;;1.65;1.10;;;;;;;16.75;60.93;100103.91;4955375;28;20432;-89
2023/09/10 04:40:56;;;;;;;1.55;1.42;;;;;;;16.55;60.67;100075.28;4974278;28;20042;-90
2023/09/10 04:43:22;;;;;;;7.03;1.33;;;;;;;16.58;59.98;100061.00;4972773;28;20036;-90
2023/09/10 04:45:47;;;;;;;2.38;2.17;;;;;;;16.47;59.61;100048.94;4972049;28;20517;-90
2023/09/10 04:48:13;;;;;;;2.35;2.15;;;;;;;16.88;59.55;100093.75;4954422;28;20042;-89
2023/09/10 04:50:40;;;;;;;4.57;1.42;;;;;;;16.74;58.87;100059.56;4958471;28;20039;-95
2023/09/10 04:53:05;;;;;;;0.95;0.95;;;;;;;16.85;59.00;100090.28;4965722;28;20031;-95
2023/09/10 04:55:31;;;;;;;2.40;0.63;;;;;;;16.79;58.52;100057.63;4954558;28;20023;-90
2023/09/10 04:57:56;;;;;;;2.15;0.80;;;;;;;16.67;58.48;100028.75;4975327;28;20042;-92
2023/09/10 05:00:22;;;;;;;1.20;1.10;;;;;;;16.89;57.82;100060.84;4972203;28;20113;-94
2023/09/10 05:02:47;;;;;;;0.85;0.75;;;;;;;17.14;57.89;100076.81;4967548;28;20034;-93
2023/09/10 05:05:13;;;;;;;0.75;0.68;;;;;;;17.09;57.73;100069.94;4955771;28;20038;-94
2023/09/10 05:07:38;;;;;;;1.15;1.05;;;;;;;17.18;58.35;100096.25;4970976;28;20035;-94
2023/09/10 05:10:04;;;;;;;1.98;0.65;;;;;;;17.28;57.73;100105.66;4972358;28;20039;-94
2023/09/10 05:12:29;;;;;;;1.65;1.02;;;;;;;17.07;57.62;100058.44;4965283;28;20455;-96
2023/09/10 05:14:55;;;;;;;0.40;0.40;;;;;;;17.33;57.39;100077.03;4974294;28;20069;-95
2023/09/10 05:17:20;;;;;;;0.60;0.50;;;;;;;17.64;56.82;100083.91;4971805;28;20249;-93
2023/09/10 05:19:47;;;;;;;0.95;0.65;;;;;;;17.71;56.07;100077.38;4990907;28;20092;-94
2023/09/10 05:22:14;;;;;;;1.00;0.90;;;;;;;17.84;56.57;100071.56;4972428;28;20042;-95
2023/09/10 05:24:46;;;;;;;1.35;0.88;;;;;;;17.97;55.90;100088.03;4976848;28;20034;-96
2023/09/10 05:27:12;;;;;;;0.60;0.50;;;;;;;18.10;55.82;100099.94;4979664;28;20038;-92
2023/09/10 05:29:37;;;;;;;0.47;0.47;;;;;;;17.92;55.91;100045.50;4967488;28;20061;-91
2023/09/10 05:32:11;;;;;;;1.73;0.63;;;;;;;18.16;54.98;100059.66;4991914;28;20034;-96
2023/09/10 05:34:36;;;;;;;1.65;1.10;;;;;;;18.26;54.41;100062.84;4964154;28;20034;-94
2023/09/10 05:37:04;;;;;;;1.65;0.85;;;;;;;18.31;54.57;100063.50;4995377;28;20061;-92
2023/09/10 05:39:29;;;;;;;2.17;1.05;;;;;;;18.41;54.23;100064.88;4973445;28;20026;-92
2023/09/10 05:41:55;;;;;;;0.93;0.82;;;;;;;18.90;53.74;100087.78;4978003;28;20030;-96
2023/09/10 05:44:20;;;;;;;1.60;0.93;;;;;;;18.65;53.63;100045.19;4974044;28;20077;-94
2023/09/10 05:46:46;;;;;;;3.00;0.77;;;;;;;18.90;52.39;100080.63;4970601;28;20076;-91
2023/09/10 05:49:12;;;;;;;1.25;1.10;;;;;;;19.19;52.71;100061.59;4974165;28;20534;-90
2023/09/10 05:51:38;;;;;;;0.30;0.30;;;;;;;19.06;52.01;100043.41;4975233;28;20036;-90
2023/09/10 05:54:03;;;;;;;1.30;0.80;;;;;;;19.23;51.24;100068.53;4983207;28;20549;-89
2023/09/10 05:56:29;;;;;;;2.47;2.25;;;;;;;19.45;50.67;100068.44;4973326;28;20034;-89
2023/09/10 05:58:55;;;;;;;0.60;0.60;;;;;;;19.90;50.37;100091.34;4989535;28;20050;-95
2023/09/10 06:01:20;;;;;;;0.90;0.80;;;;;;;19.70;50.13;100049.41;4970548;28;20038;-90
2023/09/10 06:03:46;;;;;;;0.32;0.32;;;;;;;19.77;49.23;100064.28;4969825;28;20516;-90
2023/09/10 06:06:11;;;;;;;0.65;0.50;;;;;;;20.07;48.59;100055.72;4985113;28;20026;-90
2023/09/10 06:08:37;;;;;;;1.25;0.95;;;;;;;20.36;48.43;100059.66;4989657;28;20026;-89
2023/09/10 06:11:02;;;;;;;1.33;1.23;;;;;;;20.48;48.10;100055.50;4989364;28;20030;-88
2023/09/10 06:13:28;;;;;;;1.77;1.60;;;;;;;20.80;47.52;100097.72;4961336;28;20018;-93
2023/09/10 06:15:53;;;;;;;1.08;0.88;;;;;;;20.96;47.58;100065.59;4970928;28;20035;-91
2023/09/10 06:18:19;;;;;;;1.63;0.60;;;;;;;21.49;46.03;100098.56;4973516;28;20045;-92
2023/09/10 06:20:44;;;;;;;0.63;0.63;;;;;;;21.50;46.45;100078.88;4985352;28;20497;-90
2023/09/10 06:23:10;;;;;;;0.85;0.85;;;;;;;22.08;45.55;100105.19;4996507;28;20400;-93
2023/09/10 06:25:35;;;;;;;0.60;0.40;;;;;;;21.97;46.40;100096.88;4971945;28;20053;-93
2023/09/10 06:28:01;;;;;;;1.20;0.80;;;;;;;22.31;45.46;100105.75;4972124;28;20038;-90
2023/09/10 06:30:27;;;;;;;0.52;0.38;;;;;;;22.59;44.66;100083.50;4974271;28;20030;-93
2023/09/10 06:32:54;;;;;;;2.85;1.33;;;;;;;22.85;43.35;100083.78;4977198;28;20124;-93
2023/09/10 06:35:19;;;;;;;0.88;0.65;;;;;;;23.21;43.20;100118.34;4985611;28;20075;-93
2023/09/10 06:37:47;;;;;;;2.00;1.25;;;;;;;23.60;42.89;100102.53;4952505;28;20480;-92
2023/09/10 06:40:13;;;;;;;0.30;0.30;;;;;;;23.94;42.09;100089.63;4959772;28;20101;-92
2023/09/10 06:42:39;;;;;;;1.17;0.88;;;;;;;23.67;42.30;100071.56;4971969;28;20026;-93
2023/09/10 06:45:05;;;;;;;1.55;1.08;;;;;;;23.65;40.80;100051.97;4972140;28;20026;-92
2023/09/10 06:47:31;;;;;;;0.63;0.60;;;;;;;23.73;40.89;100060.41;4961789;28;20186;-90
2023/09/10 06:49:57;;;;;;;1.45;1.02;;;;;;;24.07;41.79;100076.25;4969496;28;20031;-88
2023/09/10 06:52:22;;;;;;;1.13;0.63;;;;;;;24.08;41.03;100111.19;4983973;28;20045;-92
2023/09/10 06:54:48;;;;;;;1.35;1.05;;;;;;;24.06;42.08;100072.69;4964844;28;20461;-92
2023/09/10 06:57:13;;;;;;;5.93;2.25;;;;;;;24.68;40.41;100117.16;4987629;28;20026;-92
2023/09/10 06:59:39;;;;;;;2.65;1.13;;;;;;;24.80;39.52;100099.31;4971090;28;20416;-89
2023/09/10 07:02:06;;;;;;;0.70;0.70;;;;;;;24.98;40.03;100124.19;4982465;28;20042;-90
2023/09/10 07:04:32;;;;;;;1.23;0.82;;;;;;;25.48;38.84;100091.94;4971424;28;20018;-90
2023/09/10 07:06:57;;;;;;;1.15;0.95;;;;;;;25.91;38.65;100088.84;4968455;28;20030;-90
2023/09/10 07:09:24;;;;;;;1.40;0.73;;;;;;;25.98;36.63;100113.63;4971969;28;20038;-89
2023/09/10 07:11:50;;;;;;;5.65;1.25;;;;;;;26.14;37.19;100089.03;4989794;28;20493;-89
2023/09/10 07:14:16;;;;;;;3.03;1.20;;;;;;;26.20;35.86;100102.97;4972282;28;20512;-86
2023/09/10 07:16:42;;;;;;;1.63;1.08;;;;;;;26.24;37.44;100093.66;4989415;28;20096;-90
2023/09/10 07:19:07;;;;;;;1.13;0.60;;;;;;;26.26;36.77;100105.22;4989682;28;20042;-91
2023/09/10 07:21:33;;;;;;;2.13;0.73;;;;;;;26.21;35.81;100074.97;4982379;28;20491;-89
2023/09/10 07:23:58;;;;;;;1.50;0.75;;;;;;;25.94;36.87;100069.72;4979475;28;20475;-90
2023/09/10 07:26:24;;;;;;;0.65;0.30;;;;;;;26.53;35.26;100087.03;4962395;28;20038;-89
2023/09/10 07:28:49;;;;;;;0.32;0.32;;;;;;;26.57;34.68;100056.94;4977664;28;20035;-90
2023/09/10 07:31:15;;;;;;;1.00;0.50;;;;;;;27.04;35.12;100102.97;4985025;28;20027;-90
2023/09/10 07:33:40;;;;;;;0.35;0.35;;;;;;;27.27;33.19;100071.41;4969216;28;20073;-89
2023/09/10 07:36:06;;;;;;;1.38;0.90;;;;;;;27.29;31.40;100074.00;4964598;28;20452;-89
2023/09/10 07:38:31;;;;;;;1.38;0.85;;;;;;;27.17;31.53;100070.41;4991632;28;20037;-90
2023/09/10 07:40:57;;;;;;;1.13;0.50;;;;;;;27.70;31.81;100105.09;4989279;28;20057;-89
2023/09/10 07:43:23;;;;;;;0.82;0.52;;;;;;;27.91;30.34;100086.19;4980200;28;20038;-88
2023/09/10 07:45:50;;;;;;;1.00;0.57;;;;;;;28.06;31.28;100115.81;4977305;28;20082;-96
2023/09/10 07:48:39;;;;;;;1.30;0.75;;;;;;;27.95;31.39;100100.38;4987945;28;20031;-96
2023/09/10 07:51:05;;;;;;;1.02;0.65;;;;;;;28.02;29.40;100091.66;4975892;28;20047;-92
2023/09/10 07:53:31;;;;;;;0.90;0.52;;;;;;;28.33;29.60;100099.97;4984837;28;20073;-88
2023/09/10 07:55:58;;;;;;;4.22;0.73;;;;;;;27.96;30.65;100099.41;4974748;28;20493;-96
2023/09/10 07:58:23;;;;;;;0.40;0.40;;;;;;;27.82;30.71;100052.59;4964621;28;20081;-90
2023/09/10 08:00:53;;;;;;;2.67;0.32;;;;;;;28.47;30.72;100095.22;4992500;28;20106;-89
2023/09/10 08:03:19;;;;;;;0.55;0.43;;;;;;;28.19;28.91;100036.03;4983129;28;20047;-89
2023/09/10 08:05:44;;;;;;;1.00;0.60;;;;;;;28.44;28.20;100044.81;4980318;28;20066;-90
2023/09/10 08:08:10;;;;;;;0.45;0.38;;;;;;;28.60;29.89;100093.25;4969303;28;20093;-91
2023/09/10 08:10:35;;;;;;;2.10;0.88;;;;;;;28.90;27.72;100056.31;4972032;28;20042;-91
2023/09/10 08:13:03;;;;;;;2.40;1.65;;;;;;;29.04;30.31;100064.16;4984685;28;20037;-92
2023/09/10 08:15:30;;;;;;;0.45;0.32;;;;;;;29.15;30.99;100082.22;4973218;28;20089;-91
2023/09/10 08:17:57;;;;;;;0.52;0.50;;;;;;;29.22;29.17;100078.00;4955004;28;20489;-94
2023/09/10 08:20:23;;;;;;;1.13;1.00;;;;;;;29.52;28.97;100072.72;4957810;28;20093;-91
2023/09/10 08:22:48;;;;;;;1.58;0.70;;;;;;;29.79;29.42;100050.38;4961087;28;20541;-92
2023/09/10 08:25:14;;;;;;;3.80;1.00;;;;;;;29.86;28.38;100047.97;4971241;28;20057;-95
2023/09/10 08:27:49;;;;;;;2.05;1.17;;;;;;;30.04;26.57;100078.94;4993557;28;20049;-96
2023/09/10 08:30:14;;;;;;;;;;;;;;;29.99;25.42;100083.94;4975879;28;20038;-90
2023/09/10 08:32:40;;;;;;;1.67;1.13;;;;;;;29.87;26.01;100064.16;4990999;28;19929;-85
2023/09/10 08:35:09;;;;;;;0.70;0.70;;;;;;;29.61;25.68;100066.47;4992812;28;20818;-89
2023/09/10 08:37:34;;;;;;;1.00;0.55;;;;;;;29.48;25.67;100060.44;4975056;28;20081;-89
2023/09/10 08:40:00;;;;;;;0.65;0.40;;;;;;;29.31;26.25;100042.91;4992386;28;20050;-91
2023/09/10 08:42:52;;;;;;;0.85;0.85;;;;;;;29.42;26.91;100056.38;4991236;28;20037;-89
2023/09/10 08:45:18;;;;;;;1.95;1.00;;;;;;;29.35;26.70;100058.78;4974468;28;20050;-89
2023/09/10 08:47:46;;;;;;;0.85;0.68;;;;;;;29.19;26.90;100069.25;4974670;28;20030;-90
2023/09/10 08:50:13;;;;;;;1.55;0.45;;;;;;;28.84;27.06;100055.03;4974723;28;20488;-90
2023/09/10 08:52:41;;;;;;;1.80;1.60;;;;;;;28.98;26.54;100044.81;4974581;28;20061;-89
2023/09/10 08:55:08;;;;;;;0.68;0.65;;;;;;;28.70;27.47;100072.50;4991943;28;20049;-90
2023/09/10 08:57:37;;;;;;;0.30;0.30;;;;;;;28.87;27.96;100043.03;4973901;28;20041;-92
2023/09/10 09:00:07;;;;;;;0.98;0.90;;;;;;;28.96;28.65;100063.09;4973757;28;20058;-92
2023/09/10 09:02:32;;;;;;;0.30;0.30;;;;;;;28.70;29.68;100044.47;4973804;28;20121;-91
2023/09/10 09:04:58;;;;;;;0.60;0.40;;;;;;;28.99;27.58;100039.25;4991603;28;20517;-90
2023/09/10 09:07:30;;;;;;;3.47;2.03;;;;;;;29.27;27.09;100036.84;4991242;28;20497;-94
2023/09/10 09:10:00;;;;;;;2.80;0.82;;;;;;;28.98;27.36;100031.22;4973570;28;20457;-93
2023/09/10 09:12:27;;;;;;;1.83;0.63;;;;;;;28.72;27.26;100008.06;4974046;28;20035;-93
2023/09/10 09:14:54;;;;;;;0.55;0.30;;;;;;;28.53;27.67;100006.06;4974716;28;20424;-94
2023/09/10 09:17:21;;;;;;;1.13;0.65;;;;;;;28.65;28.71;100036.72;4974243;28;20129;-93
2023/09/10 09:19:49;;;;;;;2.50;1.05;;;;;;;28.89;28.51;100022.91;4991272;28;20030;-92
2023/09/10 09:22:20;;;;;;;0.28;0.28;;;;;;;29.02;30.54;100008.25;4974240;28;20113;-93
2023/09/10 09:24:48;;;;;;;2.92;0.98;;;;;;;28.88;27.16;100013.03;4973647;28;20038;-92
2023/09/10 09:27:15;;;;;;;1.67;1.15;;;;;;;28.73;28.09;100027.91;4974145;28;20118;-93
2023/09/10 09:29:41;;;;;;;1.13;0.88;;;;;;;28.86;27.06;100022.31;4973848;28;20061;-90
2023/09/10 09:32:07;;;;;;;0.57;0.57;;;;;;;29.01;27.64;100011.94;4990850;28;20602;-93
2023/09/10 09:34:33;;;;;;;0.22;0.22;;;;;;;29.11;27.46;100030.03;4990826;28;20027;-95
2023/09/10 09:37:00;;;;;;;1.80;0.80;;;;;;;28.47;28.64;99994.84;4973535;28;20069;-87
2023/09/10 09:39:26;;;;;;;1.70;0.85;;;;;;;28.95;30.31;100026.94;4992928;28;20061;-94
2023/09/10 09:41:53;;;;;;;0.93;0.63;;;;;;;29.03;28.28;99989.13;4977010;28;20132;-94
2023/09/10 09:44:19;;;;;;;0.35;0.32;;;;;;;29.16;29.18;99990.75;4972779;28;20030;-93
2023/09/10 09:46:46;;;;;;;1.40;1.30;;;;;;;29.37;28.16;100020.63;4973333;28;20460;-88
2023/09/10 09:49:12;;;;;;;0.85;0.30;;;;;;;29.56;27.64;100006.25;4992137;28;20030;-92
2023/09/10 09:51:41;;;;;;;0.77;0.50;;;;;;;29.01;27.33;99991.13;4973546;28;20026;-92
2023/09/10 09:54:07;;;;;;;1.85;0.70;;;;;;;28.87;27.53;100021.31;4974239;28;20552;-94
2023/09/10 09:56:33;;;;;;;0.68;0.63;;;;;;;28.96;27.63;100015.06;4965312;28;20038;-91
2023/09/10 09:58:59;;;;;;;0.50;0.40;;;;;;;29.17;27.66;100003.34;4976944;28;20093;-91
2023/09/10 10:01:25;;;;;;;0.73;0.63;;;;;;;28.47;27.28;99968.59;4986217;28;20039;-92
2023/09/10 10:03:53;;;;;;;0.95;0.40;;;;;;;28.32;27.77;100027.72;4953984;28;20027;-93
2023/09/10 10:06:19;;;;;;;1.90;1.17;;;;;;;28.40;28.96;99972.81;4965063;28;20053;-92
2023/09/10 10:08:51;;;;;;;0.93;0.60;;;;;;;28.63;27.76;99991.72;4972839;28;20034;-95
2023/09/10 10:11:29;;;;;;;2.42;0.65;;;;;;;28.68;27.29;100012.03;4955581;28;20583;-92
2023/09/10 10:13:59;;;;;;;0.93;0.68;;;;;;;28.42;28.55;99976.25;4973551;28;20067;-95
2023/09/10 10:16:28;;;;;;;0.63;0.40;;;;;;;28.39;28.38;99968.38;4959789;28;20062;-94
2023/09/10 10:19:02;;;;;;;1.65;1.05;;;;;;;28.34;27.89;99976.06;4971923;28;20042;-94
2023/09/10 10:21:29;;;;;;;2.08;1.45;;;;;;;28.54;27.49;99977.91;4964097;28;20476;-92
2023/09/10 10:23:56;;;;;;;5.38;1.00;;;;;;;28.75;27.52;99972.53;4985262;28;20023;-95
2023/09/10 10:26:23;;;;;;;0.93;0.82;;;;;;;28.60;27.43;99981.16;4961240;28;20051;-91
2023/09/10 10:28:49;;;;;;;1.60;0.70;;;;;;;28.29;27.93;99938.47;4972897;28;20032;-89
2023/09/10 10:31:16;;;;;;;5.40;0.93;;;;;;;28.29;27.25;99938.47;4996442;28;20029;-92
2023/09/10 10:33:54;;;;;;;1.50;0.88;;;;;;;28.48;27.23;99969.44;5009561;28;20038;-95
2023/09/10 10:36:51;;;;;;;1.08;0.43;;;;;;;28.18;26.97;99995.50;4973192;28;20511;-94
2023/09/10 10:39:43;;;;;;;0.52;0.52;;;;;;;28.42;27.38;99948.28;4907753;29;20133;-94
2023/09/10 10:42:14;;;;;;;1.63;0.50;;;;;;;28.54;26.62;99980.63;4930724;29;20058;-93
2023/09/10 10:44:42;;;;;;;2.17;1.83;;;;;;;28.80;27.64;99976.72;4937203;28;20046;-95
2023/09/10 10:47:18;;;;;;;3.90;1.33;;;;;;;29.06;27.37;99950.84;4936393;29;20094;-88
2023/09/10 10:49:52;;;;;;;3.75;1.33;;;;;;;28.81;26.85;99929.53;4943113;29;20122;-90
2023/09/10 10:52:25;;;;;;;8.32;0.68;;;;;;;28.32;26.91;99946.34;4933930;29;20067;-88
2023/09/10 10:54:52;;;;;;;1.33;0.30;;;;;;;28.70;26.79;99942.22;4940950;29;20546;-87
2023/09/10 10:57:21;;;;;;;1.25;1.02;;;;;;;28.53;26.40;99942.78;4928786;29;20043;-87
2023/09/10 10:59:47;;;;;;;9.80;1.30;;;;;;;29.02;27.40;99970.25;4946132;29;20051;-88
2023/09/10 11:02:21;;;;;;;1.20;1.10;;;;;;;29.09;26.74;99950.56;4947054;29;20031;-90
2023/09/10 11:05:13;;;;;;;0.83;0.50;;;;;;;29.26;27.08;99959.94;4947622;28;20521;-89
2023/09/10 11:07:38;;;;;;;1.27;1.08;;;;;;;29.55;26.32;99953.75;4935683;29;20365;-90
2023/09/10 11:10:45;;;;;;;1.15;0.80;;;;;;;29.92;27.19;99944.97;4934283;29;20182;-90
2023/09/10 11:13:12;;;;;;;0.60;0.50;;;;;;;29.77;26.75;99936.34;4846654;29;20053;-89
2023/09/10 11:16:04;;;;;;;0.60;0.55;;;;;;;29.10;26.70;99926.97;4857305;29;20140;-87
2023/09/10 11:18:35;;;;;;;0.98;0.80;;;;;;;29.08;27.11;99942.53;4901452;29;20044;-89
2023/09/10 11:21:06;;;;;;;1.15;0.80;;;;;;;29.21;27.21;99907.03;4896598;29;20104;-87
2023/09/10 11:23:33;;;;;;;0.68;0.60;;;;;;;29.26;26.90;99912.94;4883789;29;20067;-90
2023/09/10 11:26:14;;;;;;;0.85;0.63;;;;;;;29.60;26.27;99934.31;4875251;29;20044;-94
2023/09/10 11:28:50;;;;;;;0.45;0.38;;;;;;;29.19;26.48;99901.69;4894200;29;20056;-96